createdAt,value
2024-03-08T00:02:17.756Z,13.17
2024-03-08T00:04:44.438Z,13.60
2024-03-08T00:07:10.979Z,12.53
2024-03-08T00:09:37.701Z,12.27
2024-03-08T00:12:04.313Z,12.30
2024-03-08T00:14:30.949Z,13.07
2024-03-08T00:16:57.503Z,13.27
2024-03-08T00:19:24.006Z,12.30
2024-03-08T00:21:50.502Z,13.03
2024-03-08T00:24:17.049Z,13.03
2024-03-08T00:26:44.738Z,13.17
2024-03-08T00:29:11.497Z,13.50
2024-03-08T00:31:38.360Z,13.53
2024-03-08T00:34:05.010Z,12.93
2024-03-08T00:36:31.672Z,13.47
2024-03-08T00:38:58.271Z,13.87
2024-03-08T00:41:27.763Z,14.47
2024-03-08T00:43:54.326Z,12.47
2024-03-08T00:46:20.834Z,13.23
2024-03-08T00:48:48.610Z,14.30
2024-03-08T00:51:17.304Z,13.60
2024-03-08T00:53:44.536Z,15.10
2024-03-08T00:56:13.811Z,14.20
2024-03-08T00:58:40.461Z,12.73
2024-03-08T01:01:07.038Z,13.60
2024-03-08T01:03:33.947Z,13.63
2024-03-08T01:06:02.628Z,14.03
2024-03-08T01:08:29.412Z,14.20
2024-03-08T01:10:55.955Z,13.57
2024-03-08T01:13:22.704Z,13.40
2024-03-08T01:15:49.262Z,14.73
2024-03-08T01:18:15.880Z,13.10
2024-03-08T01:20:42.769Z,13.20
2024-03-08T01:23:09.347Z,13.73
2024-03-08T01:25:35.841Z,14.00
2024-03-08T01:28:03.742Z,15.40
2024-03-08T01:30:30.417Z,14.43
2024-03-08T01:32:56.978Z,14.37
2024-03-08T01:35:23.781Z,14.57
2024-03-08T01:37:50.944Z,13.43
2024-03-08T01:40:18.044Z,14.47
2024-03-08T01:42:45.328Z,14.77
2024-03-08T01:45:12.121Z,13.97
2024-03-08T01:47:38.950Z,14.47
2024-03-08T01:50:07.598Z,14.87
2024-03-08T01:52:35.252Z,15.40
2024-03-08T01:55:02.729Z,14.47
2024-03-08T01:57:29.994Z,14.30
2024-03-08T01:59:57.205Z,15.17
2024-03-08T02:02:23.788Z,15.20
2024-03-08T02:04:54.410Z,14.13
2024-03-08T02:07:21.038Z,15.10
2024-03-08T02:09:47.540Z,14.17
2024-03-08T02:12:14.317Z,14.97
2024-03-08T02:14:41.549Z,15.60
2024-03-08T02:17:08.942Z,14.67
2024-03-08T02:19:37.677Z,14.77
2024-03-08T02:22:05.798Z,14.37
2024-03-08T02:24:33.110Z,15.60
2024-03-08T02:26:59.876Z,15.37
2024-03-08T02:29:26.612Z,15.07
2024-03-08T02:31:53.340Z,15.70
2024-03-08T02:34:19.872Z,15.23
2024-03-08T02:36:46.393Z,14.27
2024-03-08T02:39:13.177Z,14.53
2024-03-08T02:41:39.837Z,14.37
2024-03-08T02:44:06.400Z,15.30
2024-03-08T02:46:32.966Z,14.50
2024-03-08T02:48:59.631Z,15.10
2024-03-08T02:51:27.660Z,16.40
2024-03-08T02:53:54.296Z,14.60
2024-03-08T02:56:23.120Z,14.67
2024-03-08T02:58:50.145Z,15.07
2024-03-08T03:01:17.074Z,15.27
2024-03-08T03:03:44.066Z,15.33
2024-03-08T03:06:11.275Z,15.70
2024-03-08T03:08:37.926Z,16.00
2024-03-08T03:11:04.692Z,14.63
2024-03-08T03:13:31.375Z,16.00
2024-03-08T03:15:59.242Z,16.07
2024-03-08T03:18:27.463Z,15.97
2024-03-08T03:20:54.165Z,15.73
2024-03-08T03:23:22.056Z,15.57
2024-03-08T03:25:48.881Z,15.00
2024-03-08T03:28:19.615Z,15.67
2024-03-08T03:30:48.265Z,16.97
2024-03-08T03:33:16.860Z,17.47
2024-03-08T03:35:44.372Z,16.20
2024-03-08T03:38:11.958Z,17.30
2024-03-08T03:40:39.391Z,17.37
2024-03-08T03:43:06.054Z,17.27
2024-03-08T03:45:37.201Z,16.30
2024-03-08T03:48:05.438Z,16.77
2024-03-08T03:50:32.105Z,17.47
2024-03-08T03:52:59.271Z,16.53
2024-03-08T03:55:25.814Z,16.67
2024-03-08T03:57:52.401Z,17.47
2024-03-08T04:00:19.776Z,17.00
2024-03-08T04:02:46.382Z,17.03
2024-03-08T04:05:12.931Z,16.87
2024-03-08T04:07:39.943Z,16.50
2024-03-08T04:10:07.545Z,15.90
2024-03-08T04:12:34.639Z,16.67
2024-03-08T04:15:01.480Z,17.70
2024-03-08T04:17:28.246Z,17.20
2024-03-08T04:19:55.051Z,17.10
2024-03-08T04:22:21.784Z,17.27
2024-03-08T04:24:48.478Z,17.10
2024-03-08T04:27:15.868Z,16.97
2024-03-08T04:29:42.698Z,17.30
2024-03-08T04:32:09.980Z,16.57
2024-03-08T04:34:36.688Z,17.90
2024-03-08T04:37:03.805Z,17.03
2024-03-08T04:39:30.388Z,17.17
2024-03-08T04:42:01.883Z,16.93
2024-03-08T04:44:29.971Z,16.87
2024-03-08T04:46:56.522Z,18.73
2024-03-08T04:49:24.041Z,17.23
2024-03-08T04:51:50.532Z,16.77
2024-03-08T04:54:17.124Z,17.63
2024-03-08T04:56:43.745Z,16.60
2024-03-08T04:59:10.280Z,18.20
2024-03-08T05:01:39.131Z,17.37
2024-03-08T05:04:09.901Z,17.03
2024-03-08T05:06:37.911Z,20.90
2024-03-08T05:09:14.987Z,19.37
2024-03-08T05:11:42.544Z,34.63
2024-03-08T05:14:09.086Z,31.43
2024-03-08T05:16:35.984Z,19.17
2024-03-08T05:19:02.813Z,17.90
2024-03-08T05:21:30.194Z,17.80
2024-03-08T05:23:56.935Z,18.80
2024-03-08T05:26:23.647Z,18.73
2024-03-08T05:28:50.247Z,17.53
2024-03-08T05:31:25.752Z,18.00
2024-03-08T05:33:52.496Z,18.93
2024-03-08T05:36:19.176Z,17.23
2024-03-08T05:38:45.821Z,16.77
2024-03-08T05:41:15.919Z,19.97
2024-03-08T05:43:43.072Z,18.47
2024-03-08T05:46:09.606Z,19.17
2024-03-08T05:48:36.294Z,17.47
2024-03-08T05:51:03.468Z,18.17
2024-03-08T05:53:33.173Z,18.30
2024-03-08T05:56:00.205Z,20.43
2024-03-08T05:58:26.830Z,19.90
2024-03-08T06:00:54.031Z,24.40
2024-03-08T06:03:22.933Z,26.00
2024-03-08T06:05:50.544Z,20.40
2024-03-08T06:08:17.884Z,20.43
2024-03-08T06:10:44.684Z,17.93
2024-03-08T06:13:13.576Z,18.30
2024-03-08T06:15:40.231Z,19.07
2024-03-08T06:18:07.479Z,18.13
2024-03-08T06:20:34.342Z,19.33
2024-03-08T06:23:01.071Z,20.43
2024-03-08T06:25:27.590Z,18.43
2024-03-08T06:27:54.532Z,18.60
2024-03-08T06:30:22.802Z,18.10
2024-03-08T06:32:49.455Z,17.77
2024-03-08T06:35:17.546Z,19.67
2024-03-08T06:37:45.587Z,18.47
2024-03-08T06:40:15.480Z,19.30
2024-03-08T06:42:42.608Z,19.53
2024-03-08T06:45:10.490Z,18.63
2024-03-08T06:47:37.667Z,18.13
2024-03-08T06:50:05.164Z,19.23
2024-03-08T06:52:31.721Z,19.20
2024-03-08T06:54:58.592Z,17.83
2024-03-08T06:57:25.153Z,19.27
2024-03-08T06:59:53.783Z,19.37
2024-03-08T07:02:20.416Z,18.70
2024-03-08T07:04:47.010Z,19.40
2024-03-08T07:07:13.603Z,27.57
2024-03-08T07:09:40.125Z,22.83
2024-03-08T07:12:07.639Z,27.00
2024-03-08T07:14:34.255Z,22.17
2024-03-08T07:17:01.797Z,21.70
2024-03-08T07:19:29.829Z,20.43
2024-03-08T07:21:56.589Z,24.97
2024-03-08T07:24:39.148Z,26.27
2024-03-08T07:27:06.457Z,20.53
2024-03-08T07:29:34.104Z,24.23
2024-03-08T07:32:19.418Z,24.80
2024-03-08T07:34:45.963Z,25.10
2024-03-08T07:37:12.522Z,20.40
2024-03-08T07:39:40.398Z,19.27
2024-03-08T07:42:07.067Z,20.23
2024-03-08T07:44:33.762Z,20.23
2024-03-08T07:47:00.534Z,20.17
2024-03-08T07:49:27.241Z,19.80
2024-03-08T07:51:53.747Z,20.03
2024-03-08T07:54:20.318Z,19.47
2024-03-08T07:56:46.846Z,20.00
2024-03-08T07:59:13.370Z,19.93
2024-03-08T08:01:40.083Z,20.33
2024-03-08T08:04:06.629Z,20.27
2024-03-08T08:06:34.413Z,20.37
2024-03-08T08:09:01.741Z,20.17
2024-03-08T08:11:30.063Z,19.17
2024-03-08T08:13:56.839Z,19.77
2024-03-08T08:16:27.263Z,26.13
2024-03-08T08:18:54.069Z,20.10
2024-03-08T08:21:20.558Z,20.00
2024-03-08T08:23:47.980Z,18.93
2024-03-08T08:26:14.582Z,18.67
2024-03-08T08:28:42.388Z,19.80
2024-03-08T08:31:09.624Z,19.20
2024-03-08T08:33:36.702Z,18.93
2024-03-08T08:36:04.810Z,18.60
2024-03-08T08:38:31.372Z,19.10
2024-03-08T08:40:57.954Z,18.23
2024-03-08T08:43:26.798Z,17.43
2024-03-08T08:45:55.998Z,16.47
2024-03-08T08:48:22.731Z,15.77
2024-03-08T08:50:49.268Z,16.00
2024-03-08T08:53:16.041Z,15.73
2024-03-08T08:55:42.812Z,16.27
2024-03-08T08:58:09.348Z,15.77
2024-03-08T09:00:35.930Z,16.80
2024-03-08T09:03:03.650Z,16.33
2024-03-08T09:05:30.378Z,16.80
2024-03-08T09:07:57.263Z,15.63
2024-03-08T09:10:30.418Z,26.47
2024-03-08T09:12:57.781Z,16.50
2024-03-08T09:15:24.267Z,16.80
2024-03-08T09:17:52.289Z,16.50
2024-03-08T09:20:18.884Z,17.67
2024-03-08T09:22:46.046Z,15.90
2024-03-08T09:25:12.877Z,16.53
2024-03-08T09:27:40.979Z,16.77
2024-03-08T09:30:08.371Z,17.63
2024-03-08T09:32:35.237Z,17.33
2024-03-08T09:35:02.553Z,16.83
2024-03-08T09:37:29.418Z,16.83
2024-03-08T09:39:56.033Z,16.93
2024-03-08T09:42:22.675Z,18.13
2024-03-08T09:44:49.451Z,17.03
2024-03-08T09:47:17.584Z,16.60
2024-03-08T09:49:44.834Z,17.53
2024-03-08T09:52:11.869Z,18.00
2024-03-08T09:54:38.495Z,17.93
2024-03-08T09:57:05.668Z,16.47
2024-03-08T09:59:38.039Z,16.43
2024-03-08T10:02:04.856Z,17.47
2024-03-08T10:04:32.290Z,16.80
2024-03-08T10:07:00.245Z,17.20
2024-03-08T10:09:28.679Z,17.07
2024-03-08T10:11:57.367Z,16.50
2024-03-08T10:14:24.168Z,16.47
2024-03-08T10:16:50.759Z,16.97
2024-03-08T10:19:18.278Z,15.23
2024-03-08T10:21:53.299Z,16.00
2024-03-08T10:24:19.910Z,15.90
2024-03-08T10:26:47.149Z,16.00
2024-03-08T10:29:16.991Z,15.27
2024-03-08T10:31:46.957Z,21.77
2024-03-08T10:34:13.862Z,15.17
2024-03-08T10:36:41.112Z,14.57
2024-03-08T10:39:14.132Z,15.03
2024-03-08T10:41:41.367Z,15.87
2024-03-08T10:44:08.153Z,15.60
2024-03-08T10:46:49.435Z,14.77
2024-03-08T10:49:18.868Z,18.53
2024-03-08T10:51:45.884Z,14.50
2024-03-08T10:54:13.089Z,14.17
2024-03-08T10:56:41.275Z,15.27
2024-03-08T10:59:09.919Z,15.00
2024-03-08T11:01:36.902Z,13.53
2024-03-08T11:04:06.036Z,13.70
2024-03-08T11:06:33.196Z,13.07
2024-03-08T11:09:00.351Z,14.30
2024-03-08T11:11:36.036Z,13.47
2024-03-08T11:14:03.403Z,13.80
2024-03-08T11:16:32.889Z,13.13
2024-03-08T11:19:05.747Z,12.27
2024-03-08T11:21:34.602Z,13.40
2024-03-08T11:24:01.560Z,14.30
2024-03-08T11:26:28.372Z,13.67
2024-03-08T11:28:57.267Z,14.83
2024-03-08T11:31:24.973Z,13.47
2024-03-08T11:33:51.657Z,13.77
2024-03-08T11:36:27.385Z,16.33
2024-03-08T11:38:55.244Z,12.57
2024-03-08T11:41:22.837Z,13.27
2024-03-08T11:43:49.884Z,13.40
2024-03-08T11:46:17.586Z,12.87
2024-03-08T11:48:45.690Z,12.67
2024-03-08T11:51:13.101Z,12.90
2024-03-08T11:53:40.672Z,15.80
2024-03-08T11:56:10.684Z,16.30
2024-03-08T11:58:38.309Z,16.77
2024-03-08T12:01:06.913Z,15.60
2024-03-08T12:03:35.174Z,17.07
2024-03-08T12:06:02.220Z,17.53
2024-03-08T12:08:29.466Z,18.17
2024-03-08T12:11:00.801Z,18.83
2024-03-08T12:13:31.673Z,18.37
2024-03-08T12:16:07.610Z,17.23
2024-03-08T12:18:34.987Z,17.83
2024-03-08T12:21:11.718Z,17.67
2024-03-08T12:23:40.564Z,17.83
2024-03-08T12:26:17.624Z,17.50
2024-03-08T12:28:48.753Z,17.00
2024-03-08T12:31:22.096Z,16.90
2024-03-08T12:33:55.292Z,16.37
2024-03-08T12:36:23.678Z,16.30
2024-03-08T12:38:50.292Z,16.83
2024-03-08T12:41:18.723Z,16.50
2024-03-08T12:43:52.005Z,17.40
2024-03-08T12:46:21.384Z,16.13
2024-03-08T12:48:50.753Z,18.10
2024-03-08T12:51:19.543Z,16.93
2024-03-08T12:53:47.191Z,16.13
2024-03-08T12:56:14.518Z,16.83
2024-03-08T12:58:42.042Z,16.53
2024-03-08T13:01:11.883Z,14.87
2024-03-08T13:03:38.449Z,15.13
2024-03-08T13:06:09.308Z,15.13
2024-03-08T13:08:37.206Z,14.47
2024-03-08T13:11:04.866Z,10.50
2024-03-08T13:13:31.481Z,8.50
2024-03-08T13:15:58.841Z,7.57
2024-03-08T13:18:25.455Z,7.93
2024-03-08T13:20:53.397Z,7.90
2024-03-08T13:23:20.123Z,8.03
2024-03-08T13:25:48.916Z,7.73
2024-03-08T13:28:16.725Z,7.70
2024-03-08T13:30:43.310Z,7.23
2024-03-08T13:33:10.981Z,7.53
2024-03-08T13:35:39.215Z,7.30
2024-03-08T13:38:06.817Z,6.67
2024-03-08T13:40:33.469Z,7.07
2024-03-08T13:43:02.679Z,7.37
2024-03-08T13:45:29.493Z,6.83
2024-03-08T13:47:56.215Z,6.57
2024-03-08T13:50:23.590Z,9.77
2024-03-08T13:52:54.421Z,6.93
2024-03-08T13:55:23.063Z,6.73
2024-03-08T13:57:50.136Z,6.30
2024-03-08T14:00:16.874Z,7.10
2024-03-08T14:02:44.378Z,6.67
2024-03-08T14:05:12.638Z,6.53
2024-03-08T14:07:39.315Z,7.10
2024-03-08T14:10:08.376Z,6.80
2024-03-08T14:12:35.192Z,7.00
2024-03-08T14:15:02.642Z,7.17
2024-03-08T14:17:32.593Z,6.87
2024-03-08T14:20:00.531Z,6.63
2024-03-08T14:22:27.231Z,6.93
2024-03-08T14:24:53.845Z,6.60
2024-03-08T14:27:20.348Z,6.17
2024-03-08T14:29:47.035Z,7.10
2024-03-08T14:32:14.102Z,6.77
2024-03-08T14:34:40.663Z,6.97
2024-03-08T14:37:12.893Z,6.67
2024-03-08T14:39:39.548Z,7.03
2024-03-08T14:42:07.602Z,6.73
2024-03-08T14:44:34.711Z,7.60
2024-03-08T14:47:01.530Z,10.33
2024-03-08T14:49:30.376Z,6.60
2024-03-08T14:51:59.434Z,6.63
2024-03-08T14:54:27.129Z,7.00
2024-03-08T14:56:53.687Z,6.60
2024-03-08T14:59:20.915Z,6.73
2024-03-08T15:01:47.947Z,7.10
2024-03-08T15:04:14.556Z,7.07
2024-03-08T15:06:41.764Z,7.53
2024-03-08T15:09:13.365Z,7.87
2024-03-08T15:11:41.013Z,8.27
2024-03-08T15:14:11.708Z,8.03
2024-03-08T15:16:44.643Z,8.97
2024-03-08T15:19:13.410Z,9.90
2024-03-08T15:21:40.752Z,8.80
2024-03-08T15:24:11.360Z,8.77
2024-03-08T15:26:37.924Z,8.20
2024-03-08T15:29:06.132Z,8.73
2024-03-08T15:31:33.825Z,7.93
2024-03-08T15:34:02.261Z,9.97
2024-03-08T15:36:34.511Z,11.43
2024-03-08T15:39:01.444Z,8.97
2024-03-08T15:41:28.414Z,9.37
2024-03-08T15:43:56.435Z,8.87
2024-03-08T15:46:24.406Z,8.70
2024-03-08T15:48:53.152Z,8.67
2024-03-08T15:51:20.964Z,9.80
2024-03-08T15:53:57.669Z,11.27
2024-03-08T15:56:25.456Z,10.13
2024-03-08T15:58:55.154Z,9.40
2024-03-08T16:01:24.167Z,9.03
2024-03-08T16:03:51.212Z,10.00
2024-03-08T16:06:23.738Z,9.47
2024-03-08T16:08:50.629Z,10.27
2024-03-08T16:11:18.596Z,9.93
2024-03-08T16:13:45.606Z,10.33
2024-03-08T16:16:13.474Z,9.77
2024-03-08T16:18:40.168Z,9.47
2024-03-08T16:21:08.672Z,9.60
2024-03-08T16:23:36.523Z,9.27
2024-03-08T16:26:03.263Z,9.47
2024-03-08T16:28:39.353Z,10.47
2024-03-08T16:31:06.159Z,12.30
2024-03-08T16:33:32.766Z,10.13
2024-03-08T16:35:59.310Z,10.67
2024-03-08T16:38:25.852Z,10.17
2024-03-08T16:41:02.234Z,9.97
2024-03-08T16:43:29.206Z,10.23
2024-03-08T16:45:57.395Z,10.03
2024-03-08T16:48:25.577Z,17.33
2024-03-08T16:50:52.269Z,10.20
2024-03-08T16:53:19.936Z,10.00
2024-03-08T16:55:47.985Z,10.63
2024-03-08T16:58:16.461Z,10.63
2024-03-08T17:00:43.529Z,11.17
2024-03-08T17:03:10.152Z,11.77
2024-03-08T17:05:39.138Z,10.43
2024-03-08T17:08:06.247Z,11.80
2024-03-08T17:10:34.302Z,11.30
2024-03-08T17:13:01.630Z,11.07
2024-03-08T17:15:32.806Z,10.97
2024-03-08T17:18:01.843Z,10.90
2024-03-08T17:20:29.142Z,10.30
2024-03-08T17:23:03.198Z,9.97
2024-03-08T17:25:30.372Z,10.27
2024-03-08T17:27:57.474Z,10.27
2024-03-08T17:30:25.198Z,10.13
2024-03-08T17:32:59.954Z,10.27
2024-03-08T17:35:28.672Z,9.73
2024-03-08T17:37:57.391Z,13.67
2024-03-08T17:40:25.302Z,9.77
2024-03-08T17:43:02.201Z,10.53
2024-03-08T17:45:29.294Z,9.43
2024-03-08T17:47:55.865Z,10.03
2024-03-08T17:50:22.703Z,9.53
2024-03-08T17:52:49.955Z,9.77
2024-03-08T17:55:16.870Z,9.73
2024-03-08T17:57:47.516Z,9.77
2024-03-08T18:00:26.753Z,9.40
2024-03-08T18:02:53.443Z,9.77
2024-03-08T18:05:23.042Z,9.80
2024-03-08T18:07:49.591Z,9.23
2024-03-08T18:10:20.121Z,8.40
2024-03-08T18:12:48.546Z,9.20
2024-03-08T18:15:21.397Z,9.67
2024-03-08T18:17:52.621Z,9.10
2024-03-08T18:20:22.228Z,9.10
2024-03-08T18:22:49.356Z,10.30
2024-03-08T18:25:25.202Z,9.63
2024-03-08T18:27:51.862Z,10.40
2024-03-08T18:30:18.575Z,10.13
2024-03-08T18:32:46.523Z,10.70
2024-03-08T18:35:13.157Z,16.23
2024-03-08T18:37:40.963Z,19.83
2024-03-08T18:40:12.013Z,21.73
2024-03-08T18:42:42.132Z,19.67
2024-03-08T18:45:12.110Z,19.10
2024-03-08T18:47:39.866Z,18.80
2024-03-08T18:50:09.434Z,16.20
2024-03-08T18:52:37.669Z,15.83
2024-03-08T18:55:10.800Z,12.77
2024-03-08T18:57:40.697Z,11.90
2024-03-08T19:00:24.764Z,10.80
2024-03-08T19:02:51.999Z,11.20
2024-03-08T19:05:18.631Z,10.13
2024-03-08T19:07:45.680Z,10.93
2024-03-08T19:10:15.113Z,10.20
2024-03-08T19:12:44.930Z,10.50
2024-03-08T19:15:11.500Z,10.00
2024-03-08T19:17:38.056Z,10.60
2024-03-08T19:20:07.339Z,11.10
2024-03-08T19:22:33.930Z,10.43
2024-03-08T19:25:00.542Z,10.60
2024-03-08T19:27:27.258Z,10.47
2024-03-08T19:29:53.766Z,11.23
2024-03-08T19:32:20.285Z,10.57
2024-03-08T19:34:46.815Z,11.30
2024-03-08T19:37:15.399Z,10.33
2024-03-08T19:39:42.020Z,10.70
2024-03-08T19:42:10.317Z,11.83
2024-03-08T19:44:37.464Z,11.50
2024-03-08T19:47:06.876Z,11.47
2024-03-08T19:49:34.335Z,11.57
2024-03-08T19:52:01.070Z,11.70
2024-03-08T19:54:27.678Z,12.53
2024-03-08T19:56:54.264Z,12.80
2024-03-08T19:59:20.791Z,12.27
2024-03-08T20:01:47.391Z,13.00
2024-03-08T20:04:13.997Z,11.83
2024-03-08T20:06:46.495Z,12.93
2024-03-08T20:09:13.228Z,13.27
2024-03-08T20:11:39.892Z,12.77
2024-03-08T20:14:07.958Z,13.43
2024-03-08T20:16:34.528Z,13.13
2024-03-08T20:19:03.683Z,14.53
2024-03-08T20:21:30.217Z,14.40
2024-03-08T20:23:56.736Z,14.60
2024-03-08T20:26:24.125Z,15.37
2024-03-08T20:28:52.408Z,15.00
2024-03-08T20:31:19.097Z,16.47
2024-03-08T20:33:47.827Z,15.50
2024-03-08T20:36:14.422Z,16.00
2024-03-08T20:38:42.121Z,17.27
2024-03-08T20:41:09.971Z,17.17
2024-03-08T20:43:36.765Z,16.00
2024-03-08T20:46:06.261Z,16.87
2024-03-08T20:48:33.350Z,18.13
2024-03-08T20:51:02.125Z,17.37
2024-03-08T20:53:32.263Z,17.87
2024-03-08T20:55:59.094Z,17.00
2024-03-08T20:58:27.139Z,17.60
2024-03-08T21:00:57.599Z,17.03
2024-03-08T21:03:25.484Z,18.07
2024-03-08T21:05:52.673Z,18.03
2024-03-08T21:08:25.058Z,18.40
2024-03-08T21:10:55.387Z,18.57
2024-03-08T21:13:26.140Z,18.80
2024-03-08T21:15:56.549Z,19.30
2024-03-08T21:18:23.854Z,19.23
2024-03-08T21:20:50.617Z,19.20
2024-03-08T21:23:17.133Z,19.53
2024-03-08T21:25:44.632Z,19.20
2024-03-08T21:28:12.780Z,19.50
2024-03-08T21:30:42.560Z,20.50
2024-03-08T21:33:12.644Z,19.60
2024-03-08T21:35:40.688Z,20.10
2024-03-08T21:38:12.030Z,19.73
2024-03-08T21:40:53.348Z,19.77
2024-03-08T21:43:27.876Z,19.77
2024-03-08T21:45:55.827Z,19.37
2024-03-08T21:48:22.538Z,20.27
2024-03-08T21:50:49.180Z,19.53
2024-03-08T21:53:23.814Z,19.93
2024-03-08T21:55:56.836Z,20.50
2024-03-08T21:58:23.419Z,20.40
2024-03-08T22:00:50.510Z,19.43
2024-03-08T22:03:17.185Z,20.93
2024-03-08T22:05:43.860Z,21.33
2024-03-08T22:08:11.676Z,21.63
2024-03-08T22:10:39.486Z,20.73
2024-03-08T22:13:06.356Z,20.33
2024-03-08T22:15:32.931Z,21.63
2024-03-08T22:17:59.846Z,20.77
2024-03-08T22:20:33.337Z,21.93
2024-03-08T22:23:04.418Z,21.80
2024-03-08T22:25:32.417Z,20.80
2024-03-08T22:27:59.744Z,21.93
2024-03-08T22:30:26.603Z,20.80
2024-03-08T22:32:57.478Z,21.37
2024-03-08T22:35:25.998Z,21.47
2024-03-08T22:37:53.314Z,21.23
2024-03-08T22:40:25.952Z,21.43
2024-03-08T22:42:53.607Z,21.87
2024-03-08T22:45:20.725Z,22.77
2024-03-08T22:47:47.994Z,21.97
2024-03-08T22:50:15.735Z,20.50
2024-03-08T22:52:46.277Z,22.50
2024-03-08T22:55:13.411Z,20.60
2024-03-08T22:57:41.563Z,21.80
2024-03-08T23:00:29.286Z,21.80
2024-03-08T23:02:56.691Z,21.57
2024-03-08T23:05:24.196Z,22.17
2024-03-08T23:07:52.737Z,22.80
2024-03-08T23:10:19.570Z,21.77
2024-03-08T23:12:46.144Z,21.40
2024-03-08T23:15:16.290Z,22.87
2024-03-08T23:17:45.125Z,21.13
2024-03-08T23:20:15.766Z,21.67
2024-03-08T23:22:48.094Z,22.27
2024-03-08T23:25:17.884Z,22.63
2024-03-08T23:27:51.482Z,21.97
2024-03-08T23:30:18.999Z,22.83
2024-03-08T23:32:45.941Z,21.83
2024-03-08T23:35:14.110Z,22.17
2024-03-08T23:37:50.327Z,21.27
2024-03-08T23:40:19.973Z,22.23
2024-03-08T23:42:48.103Z,22.30
2024-03-08T23:45:18.221Z,22.23
2024-03-08T23:47:51.563Z,22.03
2024-03-08T23:50:20.763Z,21.50
2024-03-08T23:52:47.663Z,22.13
2024-03-08T23:55:15.127Z,22.60
2024-03-08T23:57:45.600Z,24.37
